Flight Track Log - Related Links

Times and Time Zones

All times are in EDT time to prevent confusion due to time zone crossing. See the ASQ5963 flight status page for this flight to view local times or setup timezone preferences in your user account.

Time Position Orientation Groundspeed Altitude Reporting Facility
EDT Latitude Longitude Course Direction KTS MPH feet Rate Location/Type
Sat 05:58:00 PM 40.3100 -79.8941 164° South  Level Estimated
Sat 05:58:24 PM 40.3503 -80.2725 159° South 285 328 11,000  Level Cleveland Center
Sat 05:59:00 PM 40.2493 -79.7815 162° South  Level Estimated
Sat 05:59:24 PM 40.2731 -80.2294 157° South 299 344 14,100  Level Cleveland Center
Sat 06:00:00 PM 40.1885 -79.6692 166° South  Level Estimated
Sat 06:00:24 PM 40.1958 -80.1889 158° South 299 344 15,800  Level Cleveland Center
Sat 06:01:00 PM 40.1276 -79.5571 161° South  Level Estimated
Sat 06:01:24 PM 40.1039 -80.1406 158° South 322 371 17,400  Level Cleveland Center
Sat 06:02:00 PM 40.0665 -79.4451 166° South  Level Estimated
Sat 06:02:24 PM 40.0097 -80.0925 159° South 346 398 23,000  Level Cleveland Center
Sat 06:03:24 PM 39.9178 -80.0472 159° South 357 411 21,900 -100 Descending Cleveland Center
Sat 06:04:24 PM 39.8239 -79.9992 159° South 357 411 22,800 550 Climbing Cleveland Center
Sat 06:05:24 PM 39.7275 -79.9244 149° Southeast 373 429 23,000 100 Climbing Cleveland Center
Sat 06:06:24 PM 39.6703 -79.7847 118° Southeast 394 453 23,000  Level Cleveland Center
Sat 06:07:24 PM 39.6172 -79.6425 116° Southeast 416 479 23,000  Level Cleveland Center
Sat 06:08:41 PM 39.5511 -79.4728 117° Southeast 422 486 23,000  Level Washington Center
Sat 06:09:41 PM 39.4933 -79.3297 118° Southeast 434 499 23,000  Level Washington Center
Sat 06:10:41 PM 39.4314 -79.1681 116° Southeast 457 526 23,000 -50 Level Washington Center
Sat 06:11:42 PM 39.4008 -79.0053 104° East 457 526 22,900 -1,311 Descending Washington Center
Sat 06:12:40 PM 39.3739 -78.8483 102° East 462 532 20,400 -2,521 Descending Washington Center
Sat 06:13:41 PM 39.3464 -78.7022 104° East 444 511 17,900 -2,380 Descending Washington Center
Sat 06:14:41 PM 39.3247 -78.5669 102° East 408 470 15,600 -2,250 Descending Washington Center
Sat 06:15:41 PM 39.2986 -78.4372 105° East 383 441 13,400 -2,083 Descending Washington Center
Sat 06:16:42 PM 39.2828 -78.3133 99° East 361 415 11,400 -1,866 Descending Washington Center
Sat 06:17:40 PM 39.2769 -78.2003 94° East 338 389 9,700 -1,576 Descending Washington Center
Sat 06:18:40 PM 39.2689 -78.0956 96° East 311 358 8,300 -1,500 Descending Washington Center
Sat 06:19:40 PM 39.2647 -77.9936 93° East 289 333 6,700 -1,550 Descending Washington Center
Sat 06:20:40 PM 39.2561 -77.8967 97° East 279 321 5,200 -800 Descending Washington Center
Sat 06:21:40 PM 39.2475 -77.8000 97° East 273 314 5,100 -99 Descending Washington Center
Sat 06:22:41 PM 39.2408 -77.7033 95° East 273 314 5,000 -246 Descending Washington Center
Sat 06:23:42 PM 39.2047 -77.6219 120° Southeast 260 299 4,600 -881 Descending Washington Center
Sat 06:25:04 PM 39.1333 -77.5500 142° Southeast 222 255 2,900 -1,014 Descending Potomac TRACON
Sat 06:26:04 PM 39.0833 -77.5000 142° Southeast 207 238 2,200 -750 Descending Potomac TRACON
Sat 06:27:04 PM 39.0333 -77.4667 153° Southeast 155 178 1,400 -800 Descending Potomac TRACON

Login

Don't have an account? Register now (free) for customized features, flight alerts, and more!